首页
METAR-TAF:

METAR-TAF

机场 :

西安咸阳国际机场

西安, 中华人民共和国

纬度: 34-26N, 经度: 108-45E, 海拔: 479米

当前天气观测

该预报发布于51分钟前的20:00 UTC
风速4节,风向东北
温度 25°C
湿度 74%
气压 1005 hPa
能见度10公里或以上
1500米以下无云,无积雨云

METAR: ZLXY 192000Z 04002MPS CAVOK 25/20 Q1005 NOSIG

时间: 04:51 (20:51 UTC)

预报

该预报发布于5小时和49分钟前的15:02 UTC
预报有效从19日的 18点(UTC)到 20日的 18点(UTC)
风速6节,风向东转东北
能見度: 5000

TAF: ZLXY 191502Z 1918/2018 06003MPS 5000 HZ NSC TX36/2008Z TN23/1921Z

超过4000个机场的气象观测和天气预报(METAR&TAF报告)。

可查询的气象台以黄色和红色小点在地图上表示。

将鼠标移到小点上方,可查看气象台名称。

然后点击查看天气观测和预报。

如需切换地图:点击带黑十字的绿色按钮放大地图;点击带横线的绿色按钮缩小地图;或者点击绿色箭头查看邻近地区的地图。


METAR-TAF: